TimeEST,TemperatureF,Dew PointF,Humidity,Sea Level PressureIn,VisibilityMPH,Wind Direction,Wind SpeedMPH,Gust SpeedMPH,PrecipitationIn,Events,Conditions,WindDirDegrees,DateUTC
12:15 AM,35.1,24.8,66,30.36,10.0,NNE,3.5,-,N/A,,Clear,20,2013-12-25 05:15:00
12:35 AM,34.7,24.8,67,30.36,10.0,NNE,4.6,-,N/A,,Clear,20,2013-12-25 05:35:00
12:55 AM,34.3,24.8,68,30.36,10.0,NNE,4.6,-,N/A,,Clear,20,2013-12-25 05:55:00
1:15 AM,33.8,24.6,69,30.36,10.0,NNE,4.6,-,N/A,,Clear,20,2013-12-25 06:15:00
1:35 AM,33.6,24.4,69,30.35,10.0,NNE,4.6,-,N/A,,Clear,20,2013-12-25 06:35:00
1:55 AM,33.3,24.4,70,30.34,10.0,NNE,4.6,-,N/A,,Clear,20,2013-12-25 06:55:00
2:15 AM,33.1,24.4,71,30.35,10.0,NNE,5.8,-,N/A,,Clear,20,2013-12-25 07:15:00
2:35 AM,32.9,24.4,71,30.34,10.0,NNE,3.5,-,N/A,,Clear,20,2013-12-25 07:35:00
2:55 AM,32.9,24.4,71,30.35,10.0,NNE,4.6,-,N/A,,Clear,20,2013-12-25 07:55:00
3:15 AM,32.7,24.6,72,30.35,10.0,NNE,4.6,-,N/A,,Clear,30,2013-12-25 08:15:00
3:35 AM,32.5,24.6,73,30.34,10.0,NNE,3.5,-,N/A,,Clear,30,2013-12-25 08:35:00
3:55 AM,32.5,24.8,73,30.34,10.0,NNE,4.6,-,N/A,,Clear,20,2013-12-25 08:55:00
4:15 AM,32.4,24.8,74,30.34,10.0,NNE,3.5,-,N/A,,Clear,30,2013-12-25 09:15:00
4:35 AM,32.4,25.2,75,30.34,10.0,NNE,4.6,-,N/A,,Clear,20,2013-12-25 09:35:00
4:55 AM,32.0,25.5,77,30.34,10.0,NNE,4.6,-,N/A,,Clear,20,2013-12-25 09:55:00
5:15 AM,32.0,25.7,78,30.34,10.0,NNE,4.6,-,N/A,,Clear,30,2013-12-25 10:15:00
5:35 AM,32.2,26.2,79,30.34,10.0,NE,3.5,-,N/A,,Clear,40,2013-12-25 10:35:00
5:55 AM,32.5,26.8,79,30.34,10.0,NE,5.8,-,N/A,,Clear,40,2013-12-25 10:55:00
6:15 AM,33.3,27.3,79,30.35,10.0,NE,4.6,-,N/A,,Clear,40,2013-12-25 11:15:00
6:35 AM,33.6,27.5,78,30.35,10.0,NE,4.6,-,N/A,,Clear,40,2013-12-25 11:35:00
6:55 AM,33.8,27.7,78,30.36,10.0,NE,5.8,-,N/A,,Clear,40,2013-12-25 11:55:00
7:15 AM,33.8,28.0,79,30.36,10.0,NE,4.6,-,N/A,,Clear,40,2013-12-25 12:15:00
7:35 AM,33.8,28.2,80,30.37,10.0,NNE,4.6,-,N/A,,Scattered Clouds,30,2013-12-25 12:35:00
7:55 AM,34.2,28.6,80,30.37,10.0,NNE,4.6,-,N/A,,Overcast,20,2013-12-25 12:55:00
8:15 AM,34.7,28.9,79,30.38,10.0,NNE,5.8,-,N/A,,Mostly Cloudy,30,2013-12-25 13:15:00
8:35 AM,35.2,29.1,78,30.38,10.0,NE,5.8,-,N/A,,Overcast,40,2013-12-25 13:35:00
8:55 AM,36.1,29.3,76,30.39,10.0,NNE,9.2,-,N/A,,Overcast,30,2013-12-25 13:55:00
9:15 AM,36.9,29.3,74,30.39,10.0,NE,6.9,-,N/A,,Overcast,50,2013-12-25 14:15:00
9:35 AM,37.9,29.8,73,30.39,10.0,NE,5.8,-,N/A,,Overcast,50,2013-12-25 14:35:00
9:55 AM,38.8,30.0,71,30.39,10.0,NE,6.9,-,N/A,,Overcast,40,2013-12-25 14:55:00
10:15 AM,40.1,30.4,68,30.39,10.0,ENE,8.1,-,N/A,,Mostly Cloudy,60,2013-12-25 15:15:00
10:35 AM,41.5,31.5,67,30.40,10.0,NE,5.8,-,N/A,,Overcast,50,2013-12-25 15:35:00
10:55 AM,43.3,32.0,64,30.39,10.0,ENE,6.9,-,N/A,,Mostly Cloudy,70,2013-12-25 15:55:00
11:15 AM,44.4,32.5,63,30.39,10.0,NNE,8.1,-,N/A,,Scattered Clouds,30,2013-12-25 16:15:00
11:35 AM,46.0,33.3,61,30.38,10.0,NE,8.1,-,N/A,,Clear,50,2013-12-25 16:35:00
11:55 AM,46.8,33.8,61,30.37,10.0,ENE,9.2,-,N/A,,Clear,70,2013-12-25 16:55:00
12:15 PM,47.3,34.5,61,30.36,10.0,East,8.1,-,N/A,,Mostly Cloudy,80,2013-12-25 17:15:00
12:35 PM,47.1,34.7,62,30.35,10.0,NE,5.8,-,N/A,,Overcast,50,2013-12-25 17:35:00
12:55 PM,47.3,34.7,62,30.33,10.0,ENE,5.8,-,N/A,,Overcast,70,2013-12-25 17:55:00
1:15 PM,47.8,35.1,61,30.33,10.0,NE,8.1,-,N/A,,Overcast,50,2013-12-25 18:15:00
1:35 PM,48.4,35.2,60,30.32,10.0,ENE,6.9,-,N/A,,Overcast,70,2013-12-25 18:35:00
1:55 PM,48.7,35.4,60,30.31,10.0,NE,6.9,-,N/A,,Overcast,40,2013-12-25 18:55:00
2:15 PM,48.7,35.6,60,30.30,10.0,ENE,5.8,-,N/A,,Overcast,60,2013-12-25 19:15:00
2:35 PM,49.1,36.1,61,30.30,10.0,NNE,5.8,-,N/A,,Overcast,30,2013-12-25 19:35:00
2:55 PM,49.1,36.0,61,30.30,10.0,NNE,5.8,-,N/A,,Overcast,30,2013-12-25 19:55:00
3:15 PM,49.3,36.1,61,30.30,10.0,NE,8.1,-,N/A,,Mostly Cloudy,40,2013-12-25 20:15:00
3:35 PM,49.3,36.5,61,30.29,10.0,ENE,8.1,-,N/A,,Mostly Cloudy,60,2013-12-25 20:35:00
3:55 PM,48.9,36.3,62,30.29,10.0,NE,5.8,-,N/A,,Mostly Cloudy,50,2013-12-25 20:55:00
4:15 PM,48.7,36.5,63,30.30,10.0,NNE,3.5,-,N/A,,Mostly Cloudy,30,2013-12-25 21:15:00
4:35 PM,49.1,37.0,63,30.30,10.0,NE,4.6,-,N/A,,Mostly Cloudy,40,2013-12-25 21:35:00
4:55 PM,48.6,36.7,64,30.30,10.0,NE,5.8,-,N/A,,Overcast,50,2013-12-25 21:55:00
5:15 PM,48.2,36.7,64,30.30,10.0,ENE,5.8,-,N/A,,Overcast,60,2013-12-25 22:15:00
5:35 PM,47.8,36.9,66,30.30,10.0,NE,4.6,-,N/A,,Overcast,50,2013-12-25 22:35:00
5:55 PM,47.3,36.7,67,30.30,10.0,ENE,4.6,-,N/A,,Overcast,60,2013-12-25 22:55:00
6:15 PM,47.1,36.7,67,30.31,10.0,NE,4.6,-,N/A,,Overcast,50,2013-12-25 23:15:00
6:35 PM,46.9,36.7,68,30.30,10.0,ENE,5.8,-,N/A,,Overcast,60,2013-12-25 23:35:00
6:55 PM,46.6,36.9,69,30.30,10.0,NE,3.5,-,N/A,,Overcast,50,2013-12-25 23:55:00
7:15 PM,46.4,36.7,69,30.31,10.0,NE,5.8,-,N/A,,Overcast,50,2013-12-26 00:15:00
7:35 PM,46.4,36.5,68,30.32,10.0,ENE,3.5,-,N/A,,Overcast,60,2013-12-26 00:35:00
7:55 PM,46.0,36.7,70,30.32,10.0,NE,3.5,-,N/A,,Overcast,50,2013-12-26 00:55:00
8:15 PM,46.0,36.5,69,30.33,10.0,ENE,3.5,-,N/A,,Overcast,60,2013-12-26 01:15:00
8:35 PM,45.9,36.7,70,30.33,10.0,NE,3.5,-,N/A,,Overcast,50,2013-12-26 01:35:00
8:55 PM,45.9,36.7,70,30.34,10.0,NE,3.5,-,N/A,,Overcast,40,2013-12-26 01:55:00
9:15 PM,45.7,36.5,70,30.33,10.0,ENE,3.5,-,N/A,,Overcast,60,2013-12-26 02:15:00
9:35 PM,45.7,36.7,71,30.33,10.0,Calm,Calm,-,N/A,,Overcast,0,2013-12-26 02:35:00
9:55 PM,45.7,36.9,71,30.31,10.0,East,4.6,-,N/A,,Overcast,80,2013-12-26 02:55:00
10:15 PM,45.5,36.9,72,30.31,10.0,Calm,Calm,-,N/A,,Overcast,0,2013-12-26 03:15:00
10:35 PM,45.5,36.1,70,30.31,10.0,East,5.8,-,N/A,,Overcast,80,2013-12-26 03:35:00
10:55 PM,45.5,35.6,68,30.30,10.0,NE,4.6,-,N/A,,Overcast,50,2013-12-26 03:55:00
11:15 PM,45.3,35.6,69,30.29,10.0,ENE,4.6,-,N/A,,Overcast,70,2013-12-26 04:15:00
11:35 PM,45.0,35.8,70,30.29,10.0,East,3.5,-,N/A,,Overcast,80,2013-12-26 04:35:00
11:55 PM,45.0,36.1,71,30.29,10.0,East,4.6,-,N/A,,Overcast,80,2013-12-26 04:55:00